sensor_id;sensor_type;location;lat;lon;timestamp;temperature;humidity
69189;DHT22;56302;52.322;5.926;2023-02-15T00:01:25;-0.70;93.70
69189;DHT22;56302;52.322;5.926;2023-02-15T00:03:50;-0.70;93.10
69189;DHT22;56302;52.322;5.926;2023-02-15T00:06:16;-0.70;92.70
69189;DHT22;56302;52.322;5.926;2023-02-15T00:08:41;-0.70;92.40
69189;DHT22;56302;52.322;5.926;2023-02-15T00:11:09;-0.70;92.40
69189;DHT22;56302;52.322;5.926;2023-02-15T00:13:35;-0.70;92.20
69189;DHT22;56302;52.322;5.926;2023-02-15T00:16:06;-0.70;92.20
69189;DHT22;56302;52.322;5.926;2023-02-15T00:18:32;-0.70;92.30
69189;DHT22;56302;52.322;5.926;2023-02-15T00:20:58;-0.70;92.30
69189;DHT22;56302;52.322;5.926;2023-02-15T00:23:24;-0.70;92.10
69189;DHT22;56302;52.322;5.926;2023-02-15T00:25:51;-0.70;92.10
69189;DHT22;56302;52.322;5.926;2023-02-15T00:28:16;-0.80;92.20
69189;DHT22;56302;52.322;5.926;2023-02-15T00:30:42;-0.80;92.50
69189;DHT22;56302;52.322;5.926;2023-02-15T00:33:07;-0.90;92.90
69189;DHT22;56302;52.322;5.926;2023-02-15T00:35:33;-0.90;92.70
69189;DHT22;56302;52.322;5.926;2023-02-15T00:37:58;-1.00;92.70
69189;DHT22;56302;52.322;5.926;2023-02-15T00:40:25;-1.10;93.10
69189;DHT22;56302;52.322;5.926;2023-02-15T00:42:50;-1.10;93.50
69189;DHT22;56302;52.322;5.926;2023-02-15T00:45:16;-1.00;93.50
69189;DHT22;56302;52.322;5.926;2023-02-15T00:47:41;-1.10;93.30
69189;DHT22;56302;52.322;5.926;2023-02-15T00:50:07;-1.10;93.20
69189;DHT22;56302;52.322;5.926;2023-02-15T00:52:32;-1.10;93.20
69189;DHT22;56302;52.322;5.926;2023-02-15T00:54:58;-1.20;93.30
69189;DHT22;56302;52.322;5.926;2023-02-15T00:57:23;-1.50;94.60
69189;DHT22;56302;52.322;5.926;2023-02-15T00:59:49;-1.50;95.90
69189;DHT22;56302;52.322;5.926;2023-02-15T01:02:15;-1.40;96.20
69189;DHT22;56302;52.322;5.926;2023-02-15T01:04:40;-1.30;96.00
69189;DHT22;56302;52.322;5.926;2023-02-15T01:07:06;-1.40;95.20
69189;DHT22;56302;52.322;5.926;2023-02-15T01:09:31;-1.50;95.60
69189;DHT22;56302;52.322;5.926;2023-02-15T01:11:57;-1.60;95.70
69189;DHT22;56302;52.322;5.926;2023-02-15T01:14:22;-1.70;96.80
69189;DHT22;56302;52.322;5.926;2023-02-15T01:16:48;-1.60;97.10
69189;DHT22;56302;52.322;5.926;2023-02-15T01:19:13;-1.50;97.20
69189;DHT22;56302;52.322;5.926;2023-02-15T01:21:39;-1.50;96.80
69189;DHT22;56302;52.322;5.926;2023-02-15T01:24:11;-1.50;96.30
69189;DHT22;56302;52.322;5.926;2023-02-15T01:26:36;-1.70;96.40
69189;DHT22;56302;52.322;5.926;2023-02-15T01:29:02;-1.80;96.70
69189;DHT22;56302;52.322;5.926;2023-02-15T01:31:27;-1.90;97.20
69189;DHT22;56302;52.322;5.926;2023-02-15T01:33:53;-2.00;98.00
69189;DHT22;56302;52.322;5.926;2023-02-15T01:36:18;-1.90;98.50
69189;DHT22;56302;52.322;5.926;2023-02-15T01:38:44;-1.70;98.80
69189;DHT22;56302;52.322;5.926;2023-02-15T01:41:10;-1.60;98.30
69189;DHT22;56302;52.322;5.926;2023-02-15T01:44:02;-1.50;97.80
69189;DHT22;56302;52.322;5.926;2023-02-15T01:46:35;-1.50;97.10
69189;DHT22;56302;52.322;5.926;2023-02-15T01:49:13;-1.40;96.50
69189;DHT22;56302;52.322;5.926;2023-02-15T01:51:41;-1.40;96.00
69189;DHT22;56302;52.322;5.926;2023-02-15T01:54:25;-1.40;95.40
69189;DHT22;56302;52.322;5.926;2023-02-15T01:56:54;-1.40;95.10
69189;DHT22;56302;52.322;5.926;2023-02-15T01:59:23;-1.40;95.00
69189;DHT22;56302;52.322;5.926;2023-02-15T02:01:52;-1.40;94.90
69189;DHT22;56302;52.322;5.926;2023-02-15T02:04:35;-1.40;94.70
69189;DHT22;56302;52.322;5.926;2023-02-15T02:07:02;-1.40;94.60
69189;DHT22;56302;52.322;5.926;2023-02-15T02:09:29;-1.50;94.50
69189;DHT22;56302;52.322;5.926;2023-02-15T02:11:55;-1.60;94.70
69189;DHT22;56302;52.322;5.926;2023-02-15T02:14:22;-1.60;94.90
69189;DHT22;56302;52.322;5.926;2023-02-15T02:39:04;-1.80;97.00
69189;DHT22;56302;52.322;5.926;2023-02-15T02:41:58;-1.80;96.40
69189;DHT22;56302;52.322;5.926;2023-02-15T02:44:45;-1.80;95.70
69189;DHT22;56302;52.322;5.926;2023-02-15T02:47:18;-1.80;95.20
69189;DHT22;56302;52.322;5.926;2023-02-15T02:49:44;-1.80;94.80
69189;DHT22;56302;52.322;5.926;2023-02-15T02:55:02;-1.80;94.40
69189;DHT22;56302;52.322;5.926;2023-02-15T02:57:30;-1.80;94.00
69189;DHT22;56302;52.322;5.926;2023-02-15T02:59:58;-1.90;94.00
69189;DHT22;56302;52.322;5.926;2023-02-15T03:02:31;-2.00;94.70
69189;DHT22;56302;52.322;5.926;2023-02-15T03:05:03;-2.20;95.20
69189;DHT22;56302;52.322;5.926;2023-02-15T03:07:32;-2.30;95.80
69189;DHT22;56302;52.322;5.926;2023-02-15T03:10:00;-2.20;96.10
69189;DHT22;56302;52.322;5.926;2023-02-15T03:12:33;-2.20;96.10
69189;DHT22;56302;52.322;5.926;2023-02-15T03:15:04;-2.10;95.70
69189;DHT22;56302;52.322;5.926;2023-02-15T03:17:32;-2.10;95.20
69189;DHT22;56302;52.322;5.926;2023-02-15T03:20:04;-2.10;94.70
69189;DHT22;56302;52.322;5.926;2023-02-15T03:22:35;-2.10;94.30
69189;DHT22;56302;52.322;5.926;2023-02-15T03:25:11;-2.10;94.00
69189;DHT22;56302;52.322;5.926;2023-02-15T03:27:45;-2.10;93.80
69189;DHT22;56302;52.322;5.926;2023-02-15T03:30:13;-2.10;93.70
69189;DHT22;56302;52.322;5.926;2023-02-15T03:32:41;-2.10;93.90
69189;DHT22;56302;52.322;5.926;2023-02-15T03:35:08;-2.30;95.10
69189;DHT22;56302;52.322;5.926;2023-02-15T03:38:10;-2.30;96.20
69189;DHT22;56302;52.322;5.926;2023-02-15T03:40:41;-2.20;96.10
69189;DHT22;56302;52.322;5.926;2023-02-15T03:49:21;-2.20;94.60
69189;DHT22;56302;52.322;5.926;2023-02-15T03:51:49;-2.20;95.00
69189;DHT22;56302;52.322;5.926;2023-02-15T03:54:23;-2.20;95.10
69189;DHT22;56302;52.322;5.926;2023-02-15T03:57:30;-2.20;95.00
69189;DHT22;56302;52.322;5.926;2023-02-15T04:00:24;-2.20;94.80
69189;DHT22;56302;52.322;5.926;2023-02-15T04:05:41;-2.30;94.70
69189;DHT22;56302;52.322;5.926;2023-02-15T04:08:08;-2.30;94.50
69189;DHT22;56302;52.322;5.926;2023-02-15T04:10:33;-2.20;94.20
69189;DHT22;56302;52.322;5.926;2023-02-15T04:13:21;-2.30;94.40
69189;DHT22;56302;52.322;5.926;2023-02-15T04:15:47;-2.40;95.40
69189;DHT22;56302;52.322;5.926;2023-02-15T04:18:32;-2.40;96.40
69189;DHT22;56302;52.322;5.926;2023-02-15T04:21:17;-2.40;96.10
69189;DHT22;56302;52.322;5.926;2023-02-15T04:24:01;-2.60;96.90
69189;DHT22;56302;52.322;5.926;2023-02-15T04:26:45;-2.70;97.60
69189;DHT22;56302;52.322;5.926;2023-02-15T04:29:13;-2.80;98.00
69189;DHT22;56302;52.322;5.926;2023-02-15T04:31:38;-2.70;98.40
69189;DHT22;56302;52.322;5.926;2023-02-15T04:34:04;-2.70;98.60
69189;DHT22;56302;52.322;5.926;2023-02-15T04:36:29;-2.70;98.80
69189;DHT22;56302;52.322;5.926;2023-02-15T04:38:55;-2.80;98.90
69189;DHT22;56302;52.322;5.926;2023-02-15T04:41:20;-2.70;99.20
69189;DHT22;56302;52.322;5.926;2023-02-15T04:43:46;-2.60;99.00
69189;DHT22;56302;52.322;5.926;2023-02-15T04:46:11;-2.50;98.80
69189;DHT22;56302;52.322;5.926;2023-02-15T04:48:37;-2.50;98.10
69189;DHT22;56302;52.322;5.926;2023-02-15T04:51:08;-2.50;97.50
69189;DHT22;56302;52.322;5.926;2023-02-15T04:53:34;-2.50;97.00
69189;DHT22;56302;52.322;5.926;2023-02-15T04:56:00;-2.40;96.30
69189;DHT22;56302;52.322;5.926;2023-02-15T04:58:26;-2.40;95.90
69189;DHT22;56302;52.322;5.926;2023-02-15T05:00:54;-2.40;95.60
69189;DHT22;56302;52.322;5.926;2023-02-15T05:03:20;-2.40;95.40
69189;DHT22;56302;52.322;5.926;2023-02-15T05:05:45;-2.50;95.20
69189;DHT22;56302;52.322;5.926;2023-02-15T05:08:11;-2.50;95.10
69189;DHT22;56302;52.322;5.926;2023-02-15T05:10:36;-2.60;95.00
69189;DHT22;56302;52.322;5.926;2023-02-15T05:13:02;-2.60;95.10
69189;DHT22;56302;52.322;5.926;2023-02-15T05:15:27;-2.60;95.00
69189;DHT22;56302;52.322;5.926;2023-02-15T05:17:53;-2.60;94.70
69189;DHT22;56302;52.322;5.926;2023-02-15T05:20:18;-2.60;94.80
69189;DHT22;56302;52.322;5.926;2023-02-15T05:22:44;-2.70;94.80
69189;DHT22;56302;52.322;5.926;2023-02-15T05:25:09;-2.80;95.60
69189;DHT22;56302;52.322;5.926;2023-02-15T05:27:54;-2.90;96.40
69189;DHT22;56302;52.322;5.926;2023-02-15T05:30:38;-3.00;97.10
69189;DHT22;56302;52.322;5.926;2023-02-15T05:33:05;-2.90;97.60
69189;DHT22;56302;52.322;5.926;2023-02-15T05:35:32;-2.90;97.60
69189;DHT22;56302;52.322;5.926;2023-02-15T05:37:57;-2.80;97.50
69189;DHT22;56302;52.322;5.926;2023-02-15T05:40:23;-2.80;97.30
69189;DHT22;56302;52.322;5.926;2023-02-15T05:42:48;-2.80;96.80
69189;DHT22;56302;52.322;5.926;2023-02-15T05:45:14;-2.80;96.40
69189;DHT22;56302;52.322;5.926;2023-02-15T05:47:40;-2.80;96.30
69189;DHT22;56302;52.322;5.926;2023-02-15T05:50:06;-2.80;95.80
69189;DHT22;56302;52.322;5.926;2023-02-15T05:52:32;-2.80;95.30
69189;DHT22;56302;52.322;5.926;2023-02-15T05:54:58;-2.80;95.90
69189;DHT22;56302;52.322;5.926;2023-02-15T05:57:25;-2.80;95.90
69189;DHT22;56302;52.322;5.926;2023-02-15T05:59:51;-2.80;95.80
69189;DHT22;56302;52.322;5.926;2023-02-15T06:02:16;-2.80;96.00
69189;DHT22;56302;52.322;5.926;2023-02-15T06:04:42;-2.70;95.70
69189;DHT22;56302;52.322;5.926;2023-02-15T06:07:07;-2.80;95.40
69189;DHT22;56302;52.322;5.926;2023-02-15T06:09:33;-2.90;95.90
69189;DHT22;56302;52.322;5.926;2023-02-15T06:11:58;-3.00;96.50
69189;DHT22;56302;52.322;5.926;2023-02-15T06:14:24;-3.00;96.90
69189;DHT22;56302;52.322;5.926;2023-02-15T06:16:49;-2.90;96.80
69189;DHT22;56302;52.322;5.926;2023-02-15T06:19:15;-2.80;96.40
69189;DHT22;56302;52.322;5.926;2023-02-15T06:21:40;-2.90;95.90
69189;DHT22;56302;52.322;5.926;2023-02-15T06:24:08;-2.90;95.80
69189;DHT22;56302;52.322;5.926;2023-02-15T06:26:33;-2.80;95.60
69189;DHT22;56302;52.322;5.926;2023-02-15T06:28:59;-2.80;95.20
69189;DHT22;56302;52.322;5.926;2023-02-15T06:31:25;-2.80;94.90
69189;DHT22;56302;52.322;5.926;2023-02-15T06:33:50;-2.80;94.90
69189;DHT22;56302;52.322;5.926;2023-02-15T06:36:16;-2.90;95.20
69189;DHT22;56302;52.322;5.926;2023-02-15T06:38:41;-2.90;95.30
69189;DHT22;56302;52.322;5.926;2023-02-15T06:41:07;-3.00;95.80
69189;DHT22;56302;52.322;5.926;2023-02-15T06:43:32;-3.10;97.00
69189;DHT22;56302;52.322;5.926;2023-02-15T06:45:59;-3.10;97.40
69189;DHT22;56302;52.322;5.926;2023-02-15T06:48:25;-3.00;97.50
69189;DHT22;56302;52.322;5.926;2023-02-15T06:50:51;-2.90;97.20
69189;DHT22;56302;52.322;5.926;2023-02-15T06:53:16;-2.90;96.90
69189;DHT22;56302;52.322;5.926;2023-02-15T06:55:42;-2.90;96.50
69189;DHT22;56302;52.322;5.926;2023-02-15T06:58:07;-3.00;96.30
69189;DHT22;56302;52.322;5.926;2023-02-15T07:00:33;-2.90;96.20
69189;DHT22;56302;52.322;5.926;2023-02-15T07:02:59;-2.90;95.90
69189;DHT22;56302;52.322;5.926;2023-02-15T07:05:26;-2.90;95.70
69189;DHT22;56302;52.322;5.926;2023-02-15T07:07:56;-3.00;95.80
69189;DHT22;56302;52.322;5.926;2023-02-15T07:10:22;-3.00;96.10
69189;DHT22;56302;52.322;5.926;2023-02-15T07:12:47;-2.90;96.50
69189;DHT22;56302;52.322;5.926;2023-02-15T07:15:15;-3.00;96.40
69189;DHT22;56302;52.322;5.926;2023-02-15T07:17:42;-3.00;96.70
69189;DHT22;56302;52.322;5.926;2023-02-15T07:20:14;-3.00;97.00
69189;DHT22;56302;52.322;5.926;2023-02-15T07:22:40;-3.00;97.30
69189;DHT22;56302;52.322;5.926;2023-02-15T07:25:07;-2.90;97.40
69189;DHT22;56302;52.322;5.926;2023-02-15T07:27:33;-2.90;97.40
69189;DHT22;56302;52.322;5.926;2023-02-15T07:29:59;-2.80;97.00
69189;DHT22;56302;52.322;5.926;2023-02-15T07:32:28;-2.70;96.90
69189;DHT22;56302;52.322;5.926;2023-02-15T07:34:54;-2.70;96.70
69189;DHT22;56302;52.322;5.926;2023-02-15T07:37:20;-2.60;96.60
69189;DHT22;56302;52.322;5.926;2023-02-15T07:39:45;-2.60;96.30
69189;DHT22;56302;52.322;5.926;2023-02-15T07:42:11;-2.50;96.20
69189;DHT22;56302;52.322;5.926;2023-02-15T07:44:36;-2.50;96.10
69189;DHT22;56302;52.322;5.926;2023-02-15T07:47:02;-2.40;96.20
69189;DHT22;56302;52.322;5.926;2023-02-15T07:49:27;-2.30;96.30
69189;DHT22;56302;52.322;5.926;2023-02-15T07:51:53;-2.30;96.30
69189;DHT22;56302;52.322;5.926;2023-02-15T07:54:18;-2.20;96.50
69189;DHT22;56302;52.322;5.926;2023-02-15T07:56:44;-2.20;96.60
69189;DHT22;56302;52.322;5.926;2023-02-15T07:59:10;-2.20;96.80
69189;DHT22;56302;52.322;5.926;2023-02-15T08:01:37;-2.10;97.00
69189;DHT22;56302;52.322;5.926;2023-02-15T08:04:04;-2.00;97.10
69189;DHT22;56302;52.322;5.926;2023-02-15T08:06:33;-2.00;97.20
69189;DHT22;56302;52.322;5.926;2023-02-15T08:08:59;-1.90;97.20
69189;DHT22;56302;52.322;5.926;2023-02-15T08:11:28;-1.90;97.20
69189;DHT22;56302;52.322;5.926;2023-02-15T08:14:13;-1.80;97.30
69189;DHT22;56302;52.322;5.926;2023-02-15T08:16:49;-1.60;97.60
69189;DHT22;56302;52.322;5.926;2023-02-15T08:19:47;-1.50;97.60
69189;DHT22;56302;52.322;5.926;2023-02-15T08:22:07;-1.40;97.60
69189;DHT22;56302;52.322;5.926;2023-02-15T08:24:37;-1.30;97.80
69189;DHT22;56302;52.322;5.926;2023-02-15T08:27:04;-1.30;97.90
69189;DHT22;56302;52.322;5.926;2023-02-15T08:29:31;-1.20;98.00
69189;DHT22;56302;52.322;5.926;2023-02-15T08:31:59;-1.10;98.00
69189;DHT22;56302;52.322;5.926;2023-02-15T08:34:28;-1.00;98.00
69189;DHT22;56302;52.322;5.926;2023-02-15T08:36:54;-1.00;97.70
69189;DHT22;56302;52.322;5.926;2023-02-15T08:39:20;-0.90;97.10
69189;DHT22;56302;52.322;5.926;2023-02-15T08:41:47;-0.80;96.60
69189;DHT22;56302;52.322;5.926;2023-02-15T08:44:15;-0.70;96.30
69189;DHT22;56302;52.322;5.926;2023-02-15T08:46:43;-0.50;96.50
69189;DHT22;56302;52.322;5.926;2023-02-15T08:49:15;-0.40;96.70
69189;DHT22;56302;52.322;5.926;2023-02-15T08:51:41;-0.30;96.90
69189;DHT22;56302;52.322;5.926;2023-02-15T08:54:08;-0.10;97.30
69189;DHT22;56302;52.322;5.926;2023-02-15T08:56:39;0.10;98.00
69189;DHT22;56302;52.322;5.926;2023-02-15T08:59:06;0.20;98.20
69189;DHT22;56302;52.322;5.926;2023-02-15T09:01:34;0.30;98.60
69189;DHT22;56302;52.322;5.926;2023-02-15T09:04:04;0.50;99.00
69189;DHT22;56302;52.322;5.926;2023-02-15T09:06:31;0.70;99.20
69189;DHT22;56302;52.322;5.926;2023-02-15T09:08:56;0.90;99.50
69189;DHT22;56302;52.322;5.926;2023-02-15T09:11:30;1.10;99.60
69189;DHT22;56302;52.322;5.926;2023-02-15T09:13:58;1.20;99.80
69189;DHT22;56302;52.322;5.926;2023-02-15T09:16:27;1.40;99.80
69189;DHT22;56302;52.322;5.926;2023-02-15T09:18:53;1.50;99.90
69189;DHT22;56302;52.322;5.926;2023-02-15T09:21:21;1.70;99.80
69189;DHT22;56302;52.322;5.926;2023-02-15T09:23:49;1.80;99.80
69189;DHT22;56302;52.322;5.926;2023-02-15T09:26:17;1.90;99.70
69189;DHT22;56302;52.322;5.926;2023-02-15T09:28:44;2.10;99.70
69189;DHT22;56302;52.322;5.926;2023-02-15T09:31:13;2.20;99.60
69189;DHT22;56302;52.322;5.926;2023-02-15T09:33:41;2.30;99.60
69189;DHT22;56302;52.322;5.926;2023-02-15T09:36:25;2.50;99.50
69189;DHT22;56302;52.322;5.926;2023-02-15T09:39:04;2.60;99.60
69189;DHT22;56302;52.322;5.926;2023-02-15T09:44:55;3.10;99.60
69189;DHT22;56302;52.322;5.926;2023-02-15T09:47:33;3.30;99.30
69189;DHT22;56302;52.322;5.926;2023-02-15T09:56:02;3.70;98.40
69189;DHT22;56302;52.322;5.926;2023-02-15T10:15:19;4.70;96.40
69189;DHT22;56302;52.322;5.926;2023-02-15T10:18:00;4.80;96.00
69189;DHT22;56302;52.322;5.926;2023-02-15T10:20:56;4.90;95.50
69189;DHT22;56302;52.322;5.926;2023-02-15T10:23:38;5.00;94.90
69189;DHT22;56302;52.322;5.926;2023-02-15T10:26:21;5.10;95.00
69189;DHT22;56302;52.322;5.926;2023-02-15T10:29:07;5.30;94.80
69189;DHT22;56302;52.322;5.926;2023-02-15T10:45:40;6.10;91.50
69189;DHT22;56302;52.322;5.926;2023-02-15T10:48:29;6.30;91.40
69189;DHT22;56302;52.322;5.926;2023-02-15T10:51:16;6.80;90.80
69189;DHT22;56302;52.322;5.926;2023-02-15T11:05:17;8.10;85.50
69189;DHT22;56302;52.322;5.926;2023-02-15T11:07:47;8.70;85.70
69189;DHT22;56302;52.322;5.926;2023-02-15T11:12:49;8.90;81.50
69189;DHT22;56302;52.322;5.926;2023-02-15T11:15:16;9.20;83.40
69189;DHT22;56302;52.322;5.926;2023-02-15T11:17:48;9.60;82.70
69189;DHT22;56302;52.322;5.926;2023-02-15T11:20:25;9.90;79.50
69189;DHT22;56302;52.322;5.926;2023-02-15T11:22:54;10.10;77.50
69189;DHT22;56302;52.322;5.926;2023-02-15T11:25:32;10.10;78.50
69189;DHT22;56302;52.322;5.926;2023-02-15T11:28:03;10.40;78.60
69189;DHT22;56302;52.322;5.926;2023-02-15T11:30:40;10.70;76.10
69189;DHT22;56302;52.322;5.926;2023-02-15T11:33:16;10.80;73.20
69189;DHT22;56302;52.322;5.926;2023-02-15T11:35:51;10.90;71.70
69189;DHT22;56302;52.322;5.926;2023-02-15T11:38:22;11.00;70.50
69189;DHT22;56302;52.322;5.926;2023-02-15T11:40:55;11.00;69.50
69189;DHT22;56302;52.322;5.926;2023-02-15T11:43:37;11.10;68.80
69189;DHT22;56302;52.322;5.926;2023-02-15T11:46:05;11.30;67.90
69189;DHT22;56302;52.322;5.926;2023-02-15T11:48:32;11.40;67.60
69189;DHT22;56302;52.322;5.926;2023-02-15T11:50:59;11.50;66.40
69189;DHT22;56302;52.322;5.926;2023-02-15T11:53:26;11.60;67.40
69189;DHT22;56302;52.322;5.926;2023-02-15T11:55:55;11.70;65.30
69189;DHT22;56302;52.322;5.926;2023-02-15T11:58:37;11.60;65.20
69189;DHT22;56302;52.322;5.926;2023-02-15T12:01:21;11.60;65.60
69189;DHT22;56302;52.322;5.926;2023-02-15T12:03:57;11.50;64.50
69189;DHT22;56302;52.322;5.926;2023-02-15T12:06:30;11.50;65.10
69189;DHT22;56302;52.322;5.926;2023-02-15T12:11:48;11.60;64.90
69189;DHT22;56302;52.322;5.926;2023-02-15T12:14:13;11.90;65.60
69189;DHT22;56302;52.322;5.926;2023-02-15T12:16:42;12.00;64.60
69189;DHT22;56302;52.322;5.926;2023-02-15T12:19:38;11.90;60.80
69189;DHT22;56302;52.322;5.926;2023-02-15T12:22:05;12.10;62.50
69189;DHT22;56302;52.322;5.926;2023-02-15T12:24:44;12.30;63.60
69189;DHT22;56302;52.322;5.926;2023-02-15T12:27:19;12.20;60.60
69189;DHT22;56302;52.322;5.926;2023-02-15T12:29:48;12.10;61.10
69189;DHT22;56302;52.322;5.926;2023-02-15T12:32:26;12.20;60.10
69189;DHT22;56302;52.322;5.926;2023-02-15T12:34:56;12.10;61.20
69189;DHT22;56302;52.322;5.926;2023-02-15T12:37:28;12.20;60.90
69189;DHT22;56302;52.322;5.926;2023-02-15T12:39:58;12.30;62.00
69189;DHT22;56302;52.322;5.926;2023-02-15T12:42:25;12.30;60.30
69189;DHT22;56302;52.322;5.926;2023-02-15T12:44:58;12.30;60.50
69189;DHT22;56302;52.322;5.926;2023-02-15T12:47:24;12.40;60.40
69189;DHT22;56302;52.322;5.926;2023-02-15T12:52:44;12.10;60.70
69189;DHT22;56302;52.322;5.926;2023-02-15T12:55:18;12.20;60.60
69189;DHT22;56302;52.322;5.926;2023-02-15T12:57:44;12.30;60.10
69189;DHT22;56302;52.322;5.926;2023-02-15T13:02:47;12.60;60.50
69189;DHT22;56302;52.322;5.926;2023-02-15T13:05:30;12.50;60.10
69189;DHT22;56302;52.322;5.926;2023-02-15T13:07:59;12.60;60.50
69189;DHT22;56302;52.322;5.926;2023-02-15T13:10:51;12.50;59.60
69189;DHT22;56302;52.322;5.926;2023-02-15T13:13:20;12.60;59.60
69189;DHT22;56302;52.322;5.926;2023-02-15T13:15:50;12.80;60.80
69189;DHT22;56302;52.322;5.926;2023-02-15T13:18:23;12.80;59.30
69189;DHT22;56302;52.322;5.926;2023-02-15T13:20:49;12.90;60.20
69189;DHT22;56302;52.322;5.926;2023-02-15T13:23:27;13.00;58.40
69189;DHT22;56302;52.322;5.926;2023-02-15T13:25:55;13.10;57.90
69189;DHT22;56302;52.322;5.926;2023-02-15T13:28:31;13.10;58.60
69189;DHT22;56302;52.322;5.926;2023-02-15T13:30:58;13.10;60.30
69189;DHT22;56302;52.322;5.926;2023-02-15T13:33:29;13.00;57.50
69189;DHT22;56302;52.322;5.926;2023-02-15T13:36:10;12.90;58.10
69189;DHT22;56302;52.322;5.926;2023-02-15T13:38:55;12.90;59.60
69189;DHT22;56302;52.322;5.926;2023-02-15T13:41:33;12.80;59.10
69189;DHT22;56302;52.322;5.926;2023-02-15T13:47:03;12.60;59.00
69189;DHT22;56302;52.322;5.926;2023-02-15T13:52:26;12.70;59.50
69189;DHT22;56302;52.322;5.926;2023-02-15T13:54:57;12.60;58.40
69189;DHT22;56302;52.322;5.926;2023-02-15T14:00:33;12.70;58.40
69189;DHT22;56302;52.322;5.926;2023-02-15T14:03:28;12.70;58.90
69189;DHT22;56302;52.322;5.926;2023-02-15T14:09:15;12.70;60.00
69189;DHT22;56302;52.322;5.926;2023-02-15T14:17:41;12.50;59.30
69189;DHT22;56302;52.322;5.926;2023-02-15T14:23:07;12.30;60.00
69189;DHT22;56302;52.322;5.926;2023-02-15T14:25:48;12.20;60.60
69189;DHT22;56302;52.322;5.926;2023-02-15T14:28:16;12.20;60.40
69189;DHT22;56302;52.322;5.926;2023-02-15T14:30:48;12.20;60.50
69189;DHT22;56302;52.322;5.926;2023-02-15T14:35:40;12.20;60.60
69189;DHT22;56302;52.322;5.926;2023-02-15T14:38:19;12.10;61.50
69189;DHT22;56302;52.322;5.926;2023-02-15T14:43:44;12.10;62.00
69189;DHT22;56302;52.322;5.926;2023-02-15T14:49:17;12.00;61.40
69189;DHT22;56302;52.322;5.926;2023-02-15T15:02:16;11.80;62.90
69189;DHT22;56302;52.322;5.926;2023-02-15T15:04:55;11.80;64.10
69189;DHT22;56302;52.322;5.926;2023-02-15T15:07:36;11.70;63.80
69189;DHT22;56302;52.322;5.926;2023-02-15T15:12:57;11.50;63.00
69189;DHT22;56302;52.322;5.926;2023-02-15T15:42:48;10.60;66.50
69189;DHT22;56302;52.322;5.926;2023-02-15T15:48:35;10.40;68.20
69189;DHT22;56302;52.322;5.926;2023-02-15T15:51:13;10.30;69.00
69189;DHT22;56302;52.322;5.926;2023-02-15T15:53:45;10.20;68.10
69189;DHT22;56302;52.322;5.926;2023-02-15T15:56:20;10.10;69.80
69189;DHT22;56302;52.322;5.926;2023-02-15T15:58:53;10.10;69.70
69189;DHT22;56302;52.322;5.926;2023-02-15T16:01:26;10.00;71.30
69189;DHT22;56302;52.322;5.926;2023-02-15T16:03:54;9.90;70.40
69189;DHT22;56302;52.322;5.926;2023-02-15T16:06:35;9.90;70.70
69189;DHT22;56302;52.322;5.926;2023-02-15T16:09:33;9.80;70.90
69189;DHT22;56302;52.322;5.926;2023-02-15T16:11:59;9.70;71.70
69189;DHT22;56302;52.322;5.926;2023-02-15T16:14:37;9.60;72.20
69189;DHT22;56302;52.322;5.926;2023-02-15T16:17:07;9.50;72.10
69189;DHT22;56302;52.322;5.926;2023-02-15T16:19:36;9.50;72.50
69189;DHT22;56302;52.322;5.926;2023-02-15T16:22:14;9.40;72.70
69189;DHT22;56302;52.322;5.926;2023-02-15T16:27:43;9.20;73.00
69189;DHT22;56302;52.322;5.926;2023-02-15T16:30:30;9.10;73.90
69189;DHT22;56302;52.322;5.926;2023-02-15T16:33:06;9.00;74.00
69189;DHT22;56302;52.322;5.926;2023-02-15T16:35:32;8.90;74.10
69189;DHT22;56302;52.322;5.926;2023-02-15T16:37:58;8.80;74.80
69189;DHT22;56302;52.322;5.926;2023-02-15T16:42:51;8.60;75.70
69189;DHT22;56302;52.322;5.926;2023-02-15T16:45:19;8.50;75.60
69189;DHT22;56302;52.322;5.926;2023-02-15T16:47:50;8.50;76.10
69189;DHT22;56302;52.322;5.926;2023-02-15T16:50:24;8.40;76.10
69189;DHT22;56302;52.322;5.926;2023-02-15T16:52:52;8.30;76.50
69189;DHT22;56302;52.322;5.926;2023-02-15T16:55:26;8.30;76.90
69189;DHT22;56302;52.322;5.926;2023-02-15T16:57:59;8.20;76.30
69189;DHT22;56302;52.322;5.926;2023-02-15T17:00:30;8.10;76.20
69189;DHT22;56302;52.322;5.926;2023-02-15T17:05:43;7.90;77.50
69189;DHT22;56302;52.322;5.926;2023-02-15T17:08:16;7.80;77.50
69189;DHT22;56302;52.322;5.926;2023-02-15T17:11:44;7.70;78.00
69189;DHT22;56302;52.322;5.926;2023-02-15T17:16:36;7.60;77.90
69189;DHT22;56302;52.322;5.926;2023-02-15T17:19:14;7.50;78.10
69189;DHT22;56302;52.322;5.926;2023-02-15T17:21:47;7.40;78.30
69189;DHT22;56302;52.322;5.926;2023-02-15T17:24:17;7.30;78.60
69189;DHT22;56302;52.322;5.926;2023-02-15T17:26:50;7.20;78.70
69189;DHT22;56302;52.322;5.926;2023-02-15T17:29:25;7.10;79.30
69189;DHT22;56302;52.322;5.926;2023-02-15T17:31:54;6.90;79.80
69189;DHT22;56302;52.322;5.926;2023-02-15T17:39:50;6.60;80.50
69189;DHT22;56302;52.322;5.926;2023-02-15T17:42:16;6.50;80.90
69189;DHT22;56302;52.322;5.926;2023-02-15T17:44:41;6.40;81.30
69189;DHT22;56302;52.322;5.926;2023-02-15T17:47:08;6.30;81.60
69189;DHT22;56302;52.322;5.926;2023-02-15T17:49:34;6.30;82.00
69189;DHT22;56302;52.322;5.926;2023-02-15T17:52:02;6.30;81.80
69189;DHT22;56302;52.322;5.926;2023-02-15T17:54:28;6.30;81.70
69189;DHT22;56302;52.322;5.926;2023-02-15T17:57:14;6.30;81.80
69189;DHT22;56302;52.322;5.926;2023-02-15T17:59:40;6.30;81.60
69189;DHT22;56302;52.322;5.926;2023-02-15T18:02:25;6.20;81.60
69189;DHT22;56302;52.322;5.926;2023-02-15T18:05:14;6.10;82.10
69189;DHT22;56302;52.322;5.926;2023-02-15T18:07:59;6.00;82.70
69189;DHT22;56302;52.322;5.926;2023-02-15T18:10:43;6.00;83.10
69189;DHT22;56302;52.322;5.926;2023-02-15T18:13:27;5.80;83.80
69189;DHT22;56302;52.322;5.926;2023-02-15T18:15:54;5.70;84.40
69189;DHT22;56302;52.322;5.926;2023-02-15T18:18:20;5.70;84.30
69189;DHT22;56302;52.322;5.926;2023-02-15T18:20:46;5.70;84.20
69189;DHT22;56302;52.322;5.926;2023-02-15T18:23:15;5.70;83.70
69189;DHT22;56302;52.322;5.926;2023-02-15T18:25:41;5.70;83.50
69189;DHT22;56302;52.322;5.926;2023-02-15T18:28:07;5.70;83.40
69189;DHT22;56302;52.322;5.926;2023-02-15T18:30:35;5.60;83.70
69189;DHT22;56302;52.322;5.926;2023-02-15T18:33:00;5.50;83.90
69189;DHT22;56302;52.322;5.926;2023-02-15T18:35:29;5.40;84.00
69189;DHT22;56302;52.322;5.926;2023-02-15T18:37:57;5.30;84.30
69189;DHT22;56302;52.322;5.926;2023-02-15T18:40:26;5.30;84.30
69189;DHT22;56302;52.322;5.926;2023-02-15T18:42:52;5.20;84.50
69189;DHT22;56302;52.322;5.926;2023-02-15T18:45:18;5.20;84.40
69189;DHT22;56302;52.322;5.926;2023-02-15T18:47:46;5.10;84.60
69189;DHT22;56302;52.322;5.926;2023-02-15T18:50:14;5.10;84.60
69189;DHT22;56302;52.322;5.926;2023-02-15T18:52:40;5.00;84.80
69189;DHT22;56302;52.322;5.926;2023-02-15T18:55:17;5.00;84.90
69189;DHT22;56302;52.322;5.926;2023-02-15T18:57:47;4.80;85.30
69189;DHT22;56302;52.322;5.926;2023-02-15T19:00:22;4.80;85.50
69189;DHT22;56302;52.322;5.926;2023-02-15T19:02:49;4.80;85.60